Time;durP1;ratioP1;P1;durP2;ratioP2;P2;SDS_P1;SDS_P2;PMS_P1;PMS_P2;Temp;Humidity;BMP_temperature;BMP_pressure;BME280_temperature;BME280_humidity;BME280_pressure;Samples;Min_cycle;Max_cycle;Signal;HPM_P1;HPM_P2
2022/10/03 00:01:41;;;;;;;10.18;4.20;;;10.90;99.90;;;;;;2092301;28;20072;-71
2022/10/03 00:03:11;;;;;;;8.50;3.95;;;10.90;99.90;;;;;;2085754;28;20125;-70
2022/10/03 00:04:20;;;;;;;10.70;4.32;;;10.90;99.90;;;;;;2092389;28;20036;-71
2022/10/03 00:05:49;;;;;;;13.03;4.80;;;10.80;99.90;;;;;;2091886;28;20361;-70
2022/10/03 00:07:29;;;;;;;10.07;4.10;;;10.90;99.90;;;;;;2100588;28;20020;-70
2022/10/03 00:08:56;;;;;;;8.38;4.22;;;10.80;99.90;;;;;;2094824;28;20028;-70
2022/10/03 00:10:32;;;;;;;7.90;3.75;;;10.80;99.90;;;;;;2091282;28;20025;-70
2022/10/03 00:11:43;;;;;;;10.38;4.40;;;10.80;99.90;;;;;;2093841;28;20059;-70
2022/10/03 00:13:08;;;;;;;8.23;3.80;;;10.80;99.90;;;;;;2092316;28;20457;-70
2022/10/03 00:14:24;;;;;;;9.55;4.00;;;10.80;99.90;;;;;;2090852;28;20044;-70
2022/10/03 00:15:34;;;;;;;9.32;3.70;;;10.80;99.90;;;;;;2091103;28;20029;-70
2022/10/03 00:17:02;;;;;;;10.45;4.25;;;10.80;99.90;;;;;;2092279;28;20057;-70
2022/10/03 00:18:26;;;;;;;11.85;4.72;;;10.80;99.90;;;;;;2091718;28;20025;-71
2022/10/03 00:19:51;;;;;;;10.48;4.07;;;10.80;99.90;;;;;;2090270;28;20040;-70
2022/10/03 00:21:29;;;;;;;9.18;3.83;;;10.80;99.90;;;;;;2092834;28;20670;-70
2022/10/03 00:22:43;;;;;;;11.60;3.92;;;10.70;99.90;;;;;;2090544;28;20025;-70
2022/10/03 00:23:55;;;;;;;10.20;3.88;;;10.70;99.90;;;;;;2089572;28;20024;-70
2022/10/03 00:25:16;;;;;;;8.52;3.95;;;10.70;99.90;;;;;;2093448;28;20838;-70
2022/10/03 00:26:45;;;;;;;13.98;4.30;;;10.70;99.90;;;;;;2092054;28;20024;-70
2022/10/03 00:28:08;;;;;;;7.25;4.32;;;10.70;99.90;;;;;;2092469;28;20025;-70
2022/10/03 00:29:36;;;;;;;9.90;4.00;;;10.70;99.90;;;;;;2093509;28;20025;-71
2022/10/03 00:31:01;;;;;;;7.70;3.55;;;10.70;99.90;;;;;;2092792;28;20060;-70
2022/10/03 00:32:29;;;;;;;8.90;3.78;;;10.70;99.90;;;;;;2092001;28;20164;-70
2022/10/03 00:33:57;;;;;;;12.82;4.57;;;10.70;99.90;;;;;;2092617;28;20025;-70
2022/10/03 00:35:17;;;;;;;8.63;3.30;;;10.60;99.90;;;;;;2091642;28;20962;-70
2022/10/03 00:36:37;;;;;;;11.33;4.57;;;10.60;99.90;;;;;;2092875;28;20111;-70
2022/10/03 00:37:48;;;;;;;10.00;3.55;;;10.60;99.90;;;;;;2094058;28;20292;-70
2022/10/03 00:39:09;;;;;;;12.20;4.82;;;10.60;99.90;;;;;;2094620;28;20539;-70
2022/10/03 00:40:35;;;;;;;10.60;4.00;;;10.60;99.90;;;;;;2094649;28;20032;-70
2022/10/03 00:41:54;;;;;;;12.63;4.57;;;10.60;99.90;;;;;;2094465;28;20425;-70
2022/10/03 00:43:33;;;;;;;10.55;4.07;;;10.60;99.90;;;;;;2092974;28;20467;-70
2022/10/03 00:44:55;;;;;;;9.57;3.67;;;10.60;99.90;;;;;;2093375;28;20096;-70
2022/10/03 00:46:28;;;;;;;8.07;3.53;;;10.60;99.90;;;;;;2092653;28;20444;-70
2022/10/03 00:47:40;;;;;;;6.88;3.65;;;10.60;99.90;;;;;;2093628;28;20013;-71
2022/10/03 00:49:08;;;;;;;10.32;4.00;;;10.60;99.90;;;;;;2092412;28;20647;-70
2022/10/03 00:50:18;;;;;;;8.88;4.28;;;10.60;99.90;;;;;;2092092;28;21227;-70
2022/10/03 00:51:25;;;;;;;13.88;4.40;;;10.60;99.90;;;;;;2095060;28;20028;-70
2022/10/03 00:52:34;;;;;;;15.25;4.20;;;10.60;99.90;;;;;;2093781;28;20091;-70
2022/10/03 00:53:56;;;;;;;9.30;3.92;;;10.60;99.90;;;;;;2093457;28;20040;-70
2022/10/03 00:55:29;;;;;;;13.27;4.35;;;10.60;99.90;;;;;;2090800;28;20017;-70
2022/10/03 00:56:40;;;;;;;15.82;5.13;;;10.60;99.90;;;;;;2091400;28;20120;-70
2022/10/03 00:57:59;;;;;;;10.02;4.18;;;10.50;99.90;;;;;;2092243;28;20512;-70
2022/10/03 00:59:21;;;;;;;13.77;4.97;;;10.50;99.90;;;;;;2092347;28;20024;-70
2022/10/03 01:00:27;;;;;;;11.13;4.97;;;10.50;99.90;;;;;;2093546;28;20040;-70
2022/10/03 01:01:37;;;;;;;12.50;4.88;;;10.50;99.90;;;;;;2093188;28;20032;-71
2022/10/03 01:02:56;;;;;;;10.38;4.50;;;10.50;99.90;;;;;;2093868;28;20024;-71
2022/10/03 01:04:30;;;;;;;13.90;4.82;;;10.50;99.90;;;;;;2093763;28;20123;-71
2022/10/03 01:05:58;;;;;;;9.27;4.40;;;10.50;99.90;;;;;;2092859;28;20028;-71
2022/10/03 01:07:27;;;;;;;9.75;4.68;;;10.50;99.90;;;;;;2092372;28;20024;-71
2022/10/03 01:09:05;;;;;;;12.52;5.13;;;10.50;99.90;;;;;;2094136;28;20079;-71
2022/10/03 01:10:21;;;;;;;15.57;5.45;;;10.50;99.90;;;;;;2093271;28;20046;-71
2022/10/03 01:11:59;;;;;;;14.48;5.13;;;10.40;99.90;;;;;;2092820;28;20027;-71
2022/10/03 01:13:17;;;;;;;12.43;4.78;;;10.50;99.90;;;;;;2092431;28;20025;-71
2022/10/03 01:14:37;;;;;;;10.27;4.72;;;10.50;99.90;;;;;;2091659;28;20048;-71
2022/10/03 01:16:00;;;;;;;13.13;5.03;;;10.50;99.90;;;;;;2092302;28;20444;-71
2022/10/03 01:17:10;;;;;;;13.30;4.68;;;10.40;99.90;;;;;;2092483;28;20028;-71
2022/10/03 01:18:27;;;;;;;10.85;5.35;;;10.40;99.90;;;;;;2093773;28;20021;-71
2022/10/03 01:19:51;;;;;;;12.85;5.15;;;10.40;99.90;;;;;;2091175;28;20032;-71
2022/10/03 01:21:04;;;;;;;10.07;5.00;;;10.40;99.90;;;;;;2091655;28;20025;-71
2022/10/03 01:22:28;;;;;;;9.85;4.35;;;10.40;99.90;;;;;;2093295;28;20021;-71
2022/10/03 01:24:03;;;;;;;13.30;5.07;;;10.40;99.90;;;;;;2090739;28;20035;-71
2022/10/03 01:25:21;;;;;;;10.80;4.50;;;10.40;99.90;;;;;;2101095;28;20032;-71
2022/10/03 01:27:02;;;;;;;13.23;5.22;;;10.40;99.90;;;;;;2097288;28;20023;-71
2022/10/03 01:31:13;;;;;;;15.98;5.53;;;10.40;99.90;;;;;;2092912;28;20063;-71
2022/10/03 01:32:17;;;;;;;14.90;5.57;;;10.40;99.90;;;;;;2093956;28;20484;-71
2022/10/03 01:33:36;;;;;;;12.20;5.22;;;10.40;99.90;;;;;;2094157;28;20021;-71
2022/10/03 01:34:41;;;;;;;10.95;4.97;;;10.40;99.90;;;;;;2092818;28;20040;-71
2022/10/03 01:36:06;;;;;;;12.20;5.25;;;10.40;99.90;;;;;;2091915;28;20094;-71
2022/10/03 01:37:21;;;;;;;14.48;5.28;;;10.40;99.90;;;;;;2092701;28;20032;-71
2022/10/03 01:38:36;;;;;;;15.63;5.65;;;10.40;99.90;;;;;;2092557;28;20033;-71
2022/10/03 01:40:02;;;;;;;10.20;4.47;;;10.40;99.90;;;;;;2092105;28;20444;-71
2022/10/03 01:41:14;;;;;;;9.82;4.43;;;10.40;99.90;;;;;;2092954;28;20090;-71
2022/10/03 01:42:36;;;;;;;11.20;5.30;;;10.40;99.90;;;;;;2093055;28;20078;-71
2022/10/03 01:43:44;;;;;;;9.85;5.28;;;10.40;99.90;;;;;;2091804;28;20377;-71
2022/10/03 01:45:30;;;;;;;14.70;5.57;;;10.40;99.90;;;;;;2093336;28;20056;-71
2022/10/03 01:46:38;;;;;;;18.63;6.22;;;10.40;99.90;;;;;;2079023;28;20084;-71
2022/10/03 01:47:46;;;;;;;13.60;6.20;;;10.40;99.90;;;;;;2095263;28;20024;-71
2022/10/03 01:49:09;;;;;;;11.32;5.35;;;10.40;99.90;;;;;;2092842;28;20013;-71
2022/10/03 01:50:20;;;;;;;10.20;4.72;;;10.40;99.90;;;;;;2093267;28;20794;-71
2022/10/03 01:51:28;;;;;;;14.95;5.53;;;10.40;99.90;;;;;;2092962;28;20051;-71
2022/10/03 01:52:39;;;;;;;12.40;4.72;;;10.40;99.90;;;;;;2092188;28;20384;-71
2022/10/03 01:53:53;;;;;;;10.70;5.25;;;10.40;99.90;;;;;;2092007;28;20025;-71
2022/10/03 01:55:29;;;;;;;13.27;5.07;;;10.40;99.90;;;;;;2096423;28;20135;-71
2022/10/03 01:56:43;;;;;;;14.35;5.07;;;10.30;99.90;;;;;;2093001;28;20027;-71
2022/10/03 01:57:59;;;;;;;10.98;5.15;;;10.30;99.90;;;;;;2091501;28;20487;-71
2022/10/03 01:59:03;;;;;;;12.05;5.10;;;10.30;99.90;;;;;;2092754;28;20031;-72
2022/10/03 02:00:16;;;;;;;14.50;5.18;;;10.30;99.90;;;;;;2091265;28;20390;-71
2022/10/03 02:01:30;;;;;;;10.95;5.10;;;10.30;99.90;;;;;;2093220;28;20024;-71
2022/10/03 02:02:37;;;;;;;11.02;4.70;;;10.30;99.90;;;;;;2091484;28;20070;-71
2022/10/03 02:03:56;;;;;;;11.52;5.10;;;10.30;99.90;;;;;;2092078;28;20020;-71
2022/10/03 02:05:11;;;;;;;10.38;5.18;;;10.30;99.90;;;;;;2098797;28;20024;-71
2022/10/03 02:06:59;;;;;;;9.57;5.00;;;10.30;99.90;;;;;;2097127;28;20020;-71
2022/10/03 02:08:08;;;;;;;12.32;4.90;;;10.30;99.90;;;;;;2084109;28;20559;-71
2022/10/03 02:09:24;;;;;;;11.25;5.30;;;10.30;99.90;;;;;;2083959;28;20033;-71
2022/10/03 02:10:30;;;;;;;10.43;4.88;;;10.30;99.90;;;;;;2088529;28;20041;-71
2022/10/03 02:11:34;;;;;;;10.23;5.00;;;10.30;99.90;;;;;;2092500;28;20098;-71
2022/10/03 02:13:00;;;;;;;11.18;4.72;;;10.30;99.90;;;;;;2091829;28;20396;-71
2022/10/03 02:14:23;;;;;;;11.15;5.15;;;10.30;99.90;;;;;;2093152;28;20056;-71
2022/10/03 02:15:42;;;;;;;11.30;5.97;;;10.30;99.90;;;;;;2090865;28;20036;-71
2022/10/03 02:17:05;;;;;;;11.18;5.05;;;10.30;99.90;;;;;;2092545;28;20027;-72
2022/10/03 02:18:22;;;;;;;13.65;5.85;;;10.30;99.90;;;;;;2091722;28;20074;-71
2022/10/03 02:19:41;;;;;;;10.65;5.18;;;10.20;99.90;;;;;;2092563;28;20119;-71
2022/10/03 02:21:08;;;;;;;15.90;5.93;;;10.20;99.90;;;;;;2091234;28;20028;-71
2022/10/03 02:22:41;;;;;;;11.90;5.63;;;10.20;99.90;;;;;;2092279;28;20094;-71
2022/10/03 02:23:44;;;;;;;12.70;5.20;;;10.20;99.90;;;;;;2092303;28;20021;-71
2022/10/03 02:25:10;;;;;;;16.67;6.40;;;10.20;99.90;;;;;;2093103;28;20644;-71
2022/10/03 02:26:56;;;;;;;9.02;5.03;;;10.20;99.90;;;;;;2091556;28;20032;-71
2022/10/03 02:28:12;;;;;;;13.10;5.57;;;10.20;99.90;;;;;;2092236;28;20035;-71
2022/10/03 02:29:33;;;;;;;11.10;5.20;;;10.20;99.90;;;;;;2090898;28;20028;-71
2022/10/03 02:31:10;;;;;;;13.18;5.57;;;10.20;99.90;;;;;;2091147;28;20527;-71
2022/10/03 02:32:34;;;;;;;10.27;5.10;;;10.20;99.90;;;;;;2093001;28;20047;-71
2022/10/03 02:33:57;;;;;;;11.73;5.88;;;10.20;99.90;;;;;;2092632;28;20500;-71
2022/10/03 02:35:09;;;;;;;11.13;6.03;;;10.10;99.90;;;;;;2093176;28;20059;-71
2022/10/03 02:36:33;;;;;;;14.10;5.70;;;10.10;99.90;;;;;;2090958;28;20493;-71
2022/10/03 02:37:45;;;;;;;13.43;6.93;;;10.10;99.90;;;;;;2094304;28;20373;-71
2022/10/03 02:39:14;;;;;;;15.35;5.57;;;10.10;99.90;;;;;;2093917;28;20024;-71
2022/10/03 02:40:39;;;;;;;10.48;6.25;;;10.10;99.90;;;;;;2091757;28;20496;-71
2022/10/03 02:41:55;;;;;;;12.13;6.63;;;10.10;99.90;;;;;;2092231;28;20115;-71
2022/10/03 02:43:31;;;;;;;11.60;6.13;;;10.10;99.90;;;;;;2092696;28;20025;-71
2022/10/03 02:44:53;;;;;;;14.88;6.32;;;10.10;99.90;;;;;;2090711;28;20029;-71
2022/10/03 02:46:41;;;;;;;16.90;6.00;;;10.10;99.90;;;;;;2092353;28;20029;-71
2022/10/03 02:48:06;;;;;;;16.30;7.03;;;10.10;99.90;;;;;;2089549;28;20148;-71
2022/10/03 02:49:33;;;;;;;15.38;6.28;;;10.10;99.90;;;;;;2091823;28;20051;-71
2022/10/03 02:50:50;;;;;;;11.18;6.40;;;10.10;99.90;;;;;;2091502;28;20589;-71
2022/10/03 02:52:24;;;;;;;10.82;6.15;;;10.10;99.90;;;;;;2092353;28;20021;-71
2022/10/03 02:54:02;;;;;;;16.38;7.53;;;10.10;99.90;;;;;;2090450;28;20040;-71
2022/10/03 02:55:32;;;;;;;12.90;6.75;;;10.10;99.90;;;;;;2091653;28;20514;-71
2022/10/03 02:56:51;;;;;;;12.97;6.97;;;10.10;99.90;;;;;;2091483;28;20029;-71
2022/10/03 02:58:36;;;;;;;15.27;7.32;;;10.00;99.90;;;;;;2091336;28;20025;-71
2022/10/03 03:00:31;;;;;;;16.35;6.85;;;10.00;99.90;;;;;;2093633;28;20036;-71
2022/10/03 03:01:40;;;;;;;10.32;6.13;;;10.00;99.90;;;;;;2069348;28;20102;-71
2022/10/03 03:03:15;;;;;;;14.18;6.50;;;10.00;99.90;;;;;;2076448;28;20034;-71
2022/10/03 03:04:43;;;;;;;15.23;6.78;;;9.90;99.90;;;;;;2091089;28;20611;-71
2022/10/03 03:06:29;;;;;;;18.52;8.48;;;10.00;99.90;;;;;;2092143;28;20104;-71
2022/10/03 03:08:09;;;;;;;18.02;7.60;;;9.90;99.90;;;;;;2091845;28;20753;-71
2022/10/03 03:09:37;;;;;;;15.02;6.75;;;9.90;99.90;;;;;;2088764;28;20041;-71
2022/10/03 03:11:07;;;;;;;12.93;6.50;;;9.90;99.90;;;;;;2093636;28;20408;-71
2022/10/03 03:12:43;;;;;;;12.93;6.82;;;9.90;99.90;;;;;;2092561;28;20056;-71
2022/10/03 03:13:58;;;;;;;16.58;7.88;;;9.90;99.90;;;;;;2092418;28;20025;-71
2022/10/03 03:15:27;;;;;;;20.35;8.23;;;9.90;99.90;;;;;;2090240;28;20021;-71
2022/10/03 03:16:50;;;;;;;16.95;7.55;;;9.90;99.90;;;;;;2090697;28;20507;-71
2022/10/03 03:18:08;;;;;;;14.52;6.80;;;9.90;99.90;;;;;;2092541;28;20099;-71
2022/10/03 03:19:34;;;;;;;15.90;6.85;;;9.90;99.90;;;;;;2093418;28;20025;-71
2022/10/03 03:20:53;;;;;;;14.82;7.35;;;9.90;99.90;;;;;;2090539;28;20021;-71
2022/10/03 03:22:20;;;;;;;13.25;7.30;;;9.90;99.90;;;;;;2092023;28;20131;-71
2022/10/03 03:23:29;;;;;;;17.10;7.45;;;9.90;99.90;;;;;;2090432;28;21235;-71
2022/10/03 03:24:48;;;;;;;13.05;6.93;;;9.90;99.90;;;;;;2098992;28;20027;-71
2022/10/03 03:26:10;;;;;;;13.57;6.45;;;9.90;99.90;;;;;;2097401;28;20024;-71
2022/10/03 03:27:32;;;;;;;16.08;7.15;;;9.90;99.90;;;;;;2091816;28;20159;-71
2022/10/03 03:28:49;;;;;;;11.95;6.75;;;9.80;99.90;;;;;;2092262;28;20090;-71
2022/10/03 03:30:10;;;;;;;14.60;7.10;;;9.80;99.90;;;;;;2090556;28;20021;-71
2022/10/03 03:31:20;;;;;;;15.48;7.82;;;9.80;99.90;;;;;;2090507;28;20029;-71
2022/10/03 03:32:32;;;;;;;11.82;7.10;;;9.80;99.90;;;;;;2093453;28;20620;-71
2022/10/03 03:34:06;;;;;;;14.60;7.05;;;9.90;99.90;;;;;;2091380;28;20071;-71
2022/10/03 03:35:37;;;;;;;13.75;6.60;;;9.90;99.90;;;;;;2091334;28;20365;-71
2022/10/03 03:37:00;;;;;;;13.82;6.28;;;9.80;99.90;;;;;;2090980;28;20858;-71
2022/10/03 03:38:31;;;;;;;12.07;6.43;;;9.80;99.90;;;;;;2092842;28;20485;-71
2022/10/03 03:40:14;;;;;;;13.75;6.75;;;9.80;99.90;;;;;;2091203;28;20029;-71
2022/10/03 03:41:39;;;;;;;11.10;6.05;;;9.80;99.90;;;;;;2092113;28;20098;-71
2022/10/03 03:43:11;;;;;;;10.85;6.35;;;9.80;99.90;;;;;;2092631;28;20040;-71
2022/10/03 03:45:00;;;;;;;12.27;6.38;;;9.80;99.90;;;;;;2090360;28;20044;-71
2022/10/03 03:46:49;;;;;;;11.23;6.43;;;9.80;99.90;;;;;;2082527;28;20040;-72
2022/10/03 03:48:20;;;;;;;11.23;5.88;;;9.70;99.90;;;;;;2092334;28;20040;-71
2022/10/03 03:49:36;;;;;;;13.43;6.13;;;9.70;99.90;;;;;;2090655;28;20052;-71
2022/10/03 03:51:02;;;;;;;14.80;6.55;;;9.80;99.90;;;;;;2090909;28;20036;-71
2022/10/03 03:52:27;;;;;;;11.55;6.40;;;9.70;99.90;;;;;;2092179;28;20108;-71
2022/10/03 03:53:59;;;;;;;12.35;6.75;;;9.70;99.90;;;;;;2092853;28;20024;-71
2022/10/03 03:55:05;;;;;;;14.35;6.47;;;9.80;99.90;;;;;;2091290;28;20036;-71
2022/10/03 03:56:15;;;;;;;14.30;6.85;;;9.70;99.90;;;;;;2091354;28;20036;-71
2022/10/03 03:57:31;;;;;;;14.63;7.30;;;9.80;99.90;;;;;;2090471;28;20025;-71
2022/10/03 03:59:11;;;;;;;15.00;6.55;;;9.80;99.90;;;;;;2090526;28;20052;-71
2022/10/03 04:00:14;;;;;;;14.67;7.43;;;9.80;99.90;;;;;;2090410;28;20139;-71
2022/10/03 04:01:42;;;;;;;14.60;6.78;;;9.80;99.90;;;;;;2092653;28;20257;-71
2022/10/03 04:02:46;;;;;;;13.77;6.07;;;9.80;99.90;;;;;;2094580;28;20048;-71
2022/10/03 04:04:03;;;;;;;11.20;5.90;;;9.80;99.90;;;;;;2093384;28;20033;-71
2022/10/03 04:05:43;;;;;;;15.07;7.30;;;9.80;99.90;;;;;;2093843;28;20063;-71
2022/10/03 04:07:12;;;;;;;10.15;5.90;;;9.90;99.90;;;;;;2092883;28;20028;-71
2022/10/03 04:08:47;;;;;;;15.05;7.45;;;9.90;99.90;;;;;;2093310;28;20055;-71
2022/10/03 04:10:09;;;;;;;12.35;6.72;;;9.80;99.90;;;;;;2092623;28;20029;-71
2022/10/03 04:11:26;;;;;;;12.95;7.03;;;9.90;99.90;;;;;;2093878;28;20032;-71
2022/10/03 04:12:54;;;;;;;14.18;6.82;;;9.90;99.90;;;;;;2094296;28;20434;-71
2022/10/03 04:14:13;;;;;;;18.42;7.45;;;9.90;99.90;;;;;;2092683;28;20020;-71
2022/10/03 04:15:45;;;;;;;17.65;9.15;;;9.90;99.90;;;;;;2093614;28;20049;-71
2022/10/03 04:19:30;;;;;;;17.48;8.52;;;9.90;99.90;;;;;;2092537;28;20024;-71
2022/10/03 04:20:55;;;;;;;12.15;6.72;;;9.90;99.90;;;;;;2083879;28;20543;-71
2022/10/03 04:22:21;;;;;;;19.05;9.40;;;9.90;99.90;;;;;;2085680;28;20120;-71
2022/10/03 04:23:48;;;;;;;19.52;8.40;;;9.90;99.90;;;;;;2085468;28;20596;-71
2022/10/03 04:25:00;;;;;;;15.52;8.45;;;9.90;99.90;;;;;;2085185;28;20033;-71
2022/10/03 04:26:28;;;;;;;19.45;9.25;;;10.00;99.90;;;;;;2088451;28;20101;-71
2022/10/03 04:27:44;;;;;;;19.65;9.10;;;10.00;99.90;;;;;;2092341;28;20047;-71
2022/10/03 04:29:20;;;;;;;17.25;9.60;;;10.00;99.90;;;;;;2093650;28;20019;-71
2022/10/03 04:30:47;;;;;;;23.67;11.50;;;10.00;99.90;;;;;;2092907;28;20033;-71
2022/10/03 04:31:50;;;;;;;25.05;10.43;;;10.00;99.90;;;;;;2092486;28;20037;-71
2022/10/03 04:33:20;;;;;;;24.75;11.73;;;10.00;99.90;;;;;;2093317;28;20044;-71
2022/10/03 04:34:40;;;;;;;24.08;11.77;;;10.10;99.90;;;;;;2094599;28;20082;-71
2022/10/03 04:36:11;;;;;;;23.48;11.02;;;10.10;99.90;;;;;;2093227;28;20105;-71
2022/10/03 04:37:33;;;;;;;28.67;10.73;;;10.10;99.90;;;;;;2092450;28;20059;-71
2022/10/03 04:39:11;;;;;;;19.30;10.40;;;10.10;99.90;;;;;;2093920;28;20016;-71
2022/10/03 04:40:23;;;;;;;21.92;11.07;;;10.10;99.90;;;;;;2094027;28;20028;-71
2022/10/03 04:41:42;;;;;;;20.45;10.85;;;10.10;99.90;;;;;;2093867;28;20073;-71
2022/10/03 04:43:08;;;;;;;23.25;11.15;;;10.20;99.90;;;;;;2093276;28;20021;-71
2022/10/03 04:44:42;;;;;;;26.67;11.60;;;10.20;99.90;;;;;;2094642;28;20442;-72
2022/10/03 04:46:19;;;;;;;19.88;11.70;;;10.20;99.90;;;;;;2093161;28;20033;-72
2022/10/03 04:47:29;;;;;;;25.10;12.35;;;10.30;99.90;;;;;;2091678;28;20012;-71
2022/10/03 04:48:42;;;;;;;30.90;13.00;;;10.30;99.90;;;;;;2093884;28;20139;-71
2022/10/03 04:50:09;;;;;;;24.55;12.23;;;10.30;99.90;;;;;;2092618;28;20526;-71
2022/10/03 04:51:39;;;;;;;25.23;12.50;;;10.30;99.90;;;;;;2093107;28;21049;-72
2022/10/03 04:53:20;;;;;;;22.77;11.57;;;10.40;99.90;;;;;;2093381;28;20103;-72
2022/10/03 04:54:25;;;;;;;25.30;12.15;;;10.40;99.90;;;;;;2094203;28;20531;-72
2022/10/03 04:55:34;;;;;;;24.27;11.95;;;10.40;99.90;;;;;;2093030;28;20744;-71
2022/10/03 04:56:42;;;;;;;23.45;12.35;;;10.40;99.90;;;;;;2092084;28;20112;-71
2022/10/03 04:57:58;;;;;;;22.75;11.98;;;10.50;99.90;;;;;;2091976;28;20036;-71
2022/10/03 04:59:41;;;;;;;26.92;11.45;;;10.50;99.90;;;;;;2093242;28;20033;-71
2022/10/03 05:01:08;;;;;;;23.58;11.30;;;10.50;99.90;;;;;;2077552;28;20045;-71
2022/10/03 05:02:18;;;;;;;28.45;12.10;;;10.60;99.90;;;;;;2080713;28;20209;-72
2022/10/03 05:03:42;;;;;;;24.70;11.33;;;10.60;99.90;;;;;;2092274;28;20068;-72
2022/10/03 05:04:59;;;;;;;22.38;11.70;;;10.60;99.90;;;;;;2095672;28;20307;-71
2022/10/03 05:06:10;;;;;;;24.95;11.90;;;10.60;99.90;;;;;;2096218;28;20029;-71
2022/10/03 05:07:24;;;;;;;25.55;12.32;;;10.60;99.90;;;;;;2092827;28;20028;-71
2022/10/03 05:08:41;;;;;;;26.02;12.85;;;10.70;99.90;;;;;;2092702;28;20793;-71
2022/10/03 05:09:49;;;;;;;27.67;11.38;;;10.70;99.90;;;;;;2091667;28;20029;-71
2022/10/03 05:11:14;;;;;;;24.50;11.40;;;10.70;99.90;;;;;;2094249;28;20033;-71
2022/10/03 05:12:49;;;;;;;27.73;12.35;;;10.70;99.90;;;;;;2092783;28;20025;-71
2022/10/03 05:14:04;;;;;;;26.40;11.35;;;10.70;99.90;;;;;;2094477;28;20396;-71
2022/10/03 05:15:20;;;;;;;25.13;11.77;;;10.80;99.90;;;;;;2091840;28;20036;-71
2022/10/03 05:16:42;;;;;;;24.13;11.43;;;10.80;99.90;;;;;;2092453;28;20017;-72
2022/10/03 05:18:11;;;;;;;25.17;12.52;;;10.80;99.90;;;;;;2090839;28;20101;-72
2022/10/03 05:19:35;;;;;;;22.75;11.55;;;10.80;99.90;;;;;;2092009;28;20028;-71
2022/10/03 05:20:57;;;;;;;23.98;11.25;;;10.80;99.90;;;;;;2091982;28;20033;-71
2022/10/03 05:22:23;;;;;;;27.67;12.38;;;10.80;99.90;;;;;;2091638;28;20021;-71
2022/10/03 05:23:38;;;;;;;24.88;11.63;;;10.90;99.90;;;;;;2092281;28;20058;-71
2022/10/03 05:25:13;;;;;;;22.00;10.77;;;10.90;99.90;;;;;;2094078;28;20550;-71
2022/10/03 05:26:23;;;;;;;21.15;11.23;;;10.90;99.90;;;;;;2094209;28;20029;-71
2022/10/03 05:27:38;;;;;;;21.95;10.80;;;10.90;99.90;;;;;;2093959;28;20150;-71
2022/10/03 05:28:49;;;;;;;24.77;11.25;;;10.90;99.90;;;;;;2093303;28;20613;-71
2022/10/03 05:30:13;;;;;;;24.67;11.15;;;10.90;99.90;;;;;;2091547;28;20031;-71
2022/10/03 05:31:23;;;;;;;21.55;10.95;;;10.90;99.90;;;;;;2090671;28;20029;-71
2022/10/03 05:32:38;;;;;;;21.17;11.07;;;10.90;99.90;;;;;;2092665;28;20069;-71
2022/10/03 05:33:48;;;;;;;29.70;11.57;;;10.90;99.90;;;;;;2091910;28;20028;-71
2022/10/03 05:35:19;;;;;;;16.85;9.98;;;10.90;99.90;;;;;;2095014;28;20512;-72
2022/10/03 05:36:32;;;;;;;20.13;10.20;;;10.90;99.90;;;;;;2091539;28;20024;-72
2022/10/03 05:37:58;;;;;;;16.92;9.55;;;10.90;99.90;;;;;;2093627;28;20021;-72
2022/10/03 05:39:33;;;;;;;17.08;9.98;;;10.90;99.90;;;;;;2093156;28;20029;-72
2022/10/03 05:40:38;;;;;;;20.35;9.48;;;10.90;99.90;;;;;;2093674;28;20029;-71
2022/10/03 05:41:49;;;;;;;18.83;9.82;;;10.90;99.90;;;;;;2090167;28;20025;-71
2022/10/03 05:42:51;;;;;;;14.70;8.00;;;10.90;99.90;;;;;;2092249;28;20032;-72
2022/10/03 05:44:00;;;;;;;15.38;8.38;;;10.90;99.90;;;;;;2093314;28;20021;-72
2022/10/03 05:45:20;;;;;;;18.48;8.73;;;10.90;99.90;;;;;;2091469;28;20472;-71
2022/10/03 05:46:39;;;;;;;19.25;9.70;;;10.90;99.90;;;;;;2093439;28;20024;-71
2022/10/03 05:47:50;;;;;;;17.73;9.25;;;10.90;99.90;;;;;;2090937;28;20021;-71
2022/10/03 05:49:28;;;;;;;21.42;9.68;;;10.90;99.90;;;;;;2093239;28;20024;-72
2022/10/03 05:51:20;;;;;;;16.88;9.70;;;10.90;99.90;;;;;;2092301;28;20051;-72
2022/10/03 05:52:40;;;;;;;15.70;8.15;;;10.80;99.90;;;;;;2089076;28;20564;-71
2022/10/03 05:54:27;;;;;;;19.75;9.63;;;10.80;99.90;;;;;;2091966;28;20024;-71
2022/10/03 05:55:43;;;;;;;16.58;8.32;;;10.80;99.90;;;;;;2090037;28;20044;-71
2022/10/03 05:57:11;;;;;;;18.15;9.23;;;10.70;99.90;;;;;;2093376;28;20020;-71
2022/10/03 05:58:30;;;;;;;19.08;9.40;;;10.70;99.90;;;;;;2090897;28;20017;-71
2022/10/03 05:59:58;;;;;;;16.42;9.32;;;10.70;99.90;;;;;;2092244;28;20013;-71
2022/10/03 06:01:13;;;;;;;21.95;10.18;;;10.70;99.90;;;;;;2094735;28;20119;-71
2022/10/03 06:02:25;;;;;;;13.95;7.93;;;10.70;99.90;;;;;;2091801;28;20107;-71
2022/10/03 06:03:50;;;;;;;15.95;8.32;;;10.70;99.90;;;;;;2091940;28;20041;-71
2022/10/03 06:05:01;;;;;;;14.32;8.93;;;10.70;99.90;;;;;;2091415;28;20362;-71
2022/10/03 06:06:34;;;;;;;14.88;7.82;;;10.70;99.90;;;;;;2090520;28;20112;-71
2022/10/03 06:08:09;;;;;;;14.80;9.00;;;10.70;99.90;;;;;;2090259;28;20032;-71
2022/10/03 06:09:50;;;;;;;15.05;8.45;;;10.70;99.90;;;;;;2092816;28;20032;-71
2022/10/03 06:11:18;;;;;;;20.08;9.07;;;10.70;99.90;;;;;;2091121;28;20033;-71
2022/10/03 06:12:27;;;;;;;18.10;9.13;;;10.70;99.90;;;;;;2092500;28;20025;-71
2022/10/03 06:14:16;;;;;;;18.52;8.52;;;10.70;99.90;;;;;;2092270;28;20025;-71
2022/10/03 06:15:37;;;;;;;19.52;9.32;;;10.70;99.90;;;;;;2090764;28;20108;-72
2022/10/03 06:17:27;;;;;;;24.98;10.20;;;10.70;99.90;;;;;;2092287;28;20826;-71
2022/10/03 06:18:47;;;;;;;;;;;10.70;99.90;;;;;;2087788;28;20080;-71
2022/10/03 06:19:59;;;;;;;22.13;10.32;;;10.70;99.90;;;;;;2091172;28;20066;-71
2022/10/03 06:21:25;;;;;;;17.38;10.55;;;10.70;99.90;;;;;;2091942;28;20115;-71
2022/10/03 06:22:49;;;;;;;18.02;9.60;;;10.80;99.90;;;;;;2093118;28;20012;-71
2022/10/03 06:24:03;;;;;;;21.48;10.07;;;10.80;99.90;;;;;;2090207;28;20020;-72
2022/10/03 06:25:20;;;;;;;18.75;9.93;;;10.80;99.90;;;;;;2091379;28;20012;-71
2022/10/03 06:26:35;;;;;;;23.50;11.00;;;10.90;99.90;;;;;;2091639;28;20028;-71
2022/10/03 06:28:01;;;;;;;17.25;9.70;;;10.90;99.90;;;;;;2092180;28;20059;-71
2022/10/03 06:29:32;;;;;;;19.60;10.63;;;11.00;99.90;;;;;;2090881;28;20024;-71
2022/10/03 06:30:55;;;;;;;22.77;11.10;;;11.00;99.90;;;;;;2093400;28;20539;-71
2022/10/03 06:31:56;;;;;;;24.20;11.10;;;11.00;99.90;;;;;;2094061;28;20267;-71
2022/10/03 06:33:02;;;;;;;21.38;10.13;;;11.00;99.90;;;;;;2093206;28;20138;-72
2022/10/03 06:34:25;;;;;;;19.38;10.38;;;11.00;99.90;;;;;;2092339;28;20025;-72
2022/10/03 06:35:54;;;;;;;23.48;11.43;;;11.10;99.90;;;;;;2090802;28;20498;-71
2022/10/03 06:37:04;;;;;;;27.38;10.30;;;11.10;99.90;;;;;;2092244;28;20028;-71
2022/10/03 06:38:48;;;;;;;17.77;10.05;;;11.10;99.90;;;;;;2093472;28;20476;-71
2022/10/03 06:40:30;;;;;;;18.20;9.40;;;11.10;99.90;;;;;;2092299;28;20040;-71
2022/10/03 06:41:41;;;;;;;18.35;10.48;;;11.10;99.90;;;;;;2091670;28;20036;-71
2022/10/03 06:42:44;;;;;;;21.20;10.18;;;11.10;99.90;;;;;;2092410;28;20042;-71
2022/10/03 06:44:09;;;;;;;21.45;10.52;;;11.20;99.90;;;;;;2090001;28;20131;-71
2022/10/03 06:45:31;;;;;;;27.20;11.38;;;11.20;99.90;;;;;;2091648;28;20566;-71
2022/10/03 06:47:15;;;;;;;18.23;9.90;;;11.20;99.90;;;;;;2093424;28;20024;-71
2022/10/03 06:48:32;;;;;;;23.67;10.93;;;11.30;99.90;;;;;;2086540;28;20447;-72
2022/10/03 06:49:50;;;;;;;23.83;10.85;;;11.30;99.90;;;;;;2092793;28;20070;-72
2022/10/03 06:51:16;;;;;;;22.67;11.70;;;11.30;99.90;;;;;;2093026;28;20107;-71
2022/10/03 06:52:37;;;;;;;25.05;11.25;;;11.40;99.90;;;;;;2091788;28;20033;-71
2022/10/03 06:53:44;;;;;;;17.83;11.30;;;11.40;99.90;;;;;;2094494;28;20025;-71
2022/10/03 06:54:53;;;;;;;24.85;11.50;;;11.50;99.90;;;;;;2092894;28;20032;-71
2022/10/03 06:56:18;;;;;;;25.83;11.82;;;11.50;99.90;;;;;;2091399;28;20037;-71
2022/10/03 06:57:43;;;;;;;23.55;11.18;;;11.60;99.90;;;;;;2090086;28;20045;-71
2022/10/03 06:59:09;;;;;;;27.92;12.48;;;11.70;99.90;;;;;;2091446;28;20040;-72
2022/10/03 07:00:21;;;;;;;22.25;11.32;;;11.70;99.90;;;;;;2090842;28;20153;-72
2022/10/03 07:01:47;;;;;;;25.23;12.23;;;11.80;99.90;;;;;;2089096;28;20021;-72
2022/10/03 07:03:03;;;;;;;27.90;13.30;;;11.80;99.90;;;;;;2090467;28;20017;-72
2022/10/03 07:04:15;;;;;;;23.10;11.27;;;11.90;99.90;;;;;;2091213;28;20021;-71
2022/10/03 07:05:47;;;;;;;30.88;13.10;;;12.00;99.90;;;;;;2091545;28;20032;-71
2022/10/03 07:07:20;;;;;;;26.17;12.50;;;12.10;99.90;;;;;;2091005;28;20854;-72
2022/10/03 07:08:23;;;;;;;26.48;12.40;;;12.10;99.90;;;;;;2092423;28;20384;-72
2022/10/03 07:09:59;;;;;;;28.15;13.30;;;12.20;99.90;;;;;;2089620;28;20181;-72